Triumph — WDC9555 — position and weather

sailwx.info

Track history (hours):
 
Tides and Currents Weather Stations Pressure Air Temp Water Temp Dewpoint Dewpoint Depression Visibility Wind Speed Wind Dir Waves Ship Positions

Triumph

Owner: WESTERN TOWBOAT CO, SEATTLE, WA. More information available from US FCC via Universal Licensing System and Coast Guard Vessel Documentation Center.

Last reported at 2017-Sep-21 20:52 UTC. Time now 2017-Sep-22 20:55 UTC.
Position N 47°34' W 122°21'.

Length 24 m; draft 3 m.

Type: Tow > 200 m length. MMSI: 367103880.

Date/timePositionNaut miles runAvg speedWind from/ knotsBaromVisibWave heightAir tempDewpointWater temp
2017-Sep-21 20:52N 47°34' W 122°21'1 2.4
2017-Sep-21 20:30N 47°33' W 122°21'2 3.5
2017-Sep-21 20:00N 47°35' W 122°22'2 4.7
2017-Sep-21 19:30N 47°37' W 122°24'3 5.8
2017-Sep-21 19:00N 47°39' W 122°27'2 4.8
2017-Sep-21 18:30N 47°41' W 122°28'3 5.3
2017-Sep-21 18:00N 47°44' W 122°27'3 5.1
2017-Sep-21 17:30N 47°46' W 122°27'3 5.9
2017-Sep-21 17:00N 47°49' W 122°28'3 5.8
2017-Sep-21 16:30N 47°52' W 122°29'3 5.3
2017-Sep-21 16:00N 47°54' W 122°30'3 4.9
2017-Sep-21 15:30N 47°56' W 122°33'3 5.4
2017-Sep-21 15:00N 47°58' W 122°36'3 6.0
2017-Sep-21 14:28N 48°01' W 122°38'21 6.3
2017-Sep-21 11:09N 48°21' W 122°46'1 6.7
2017-Sep-21 11:00N 48°22' W 122°46'3 6.6
2017-Sep-21 10:29N 48°25' W 122°45'3 6.7
2017-Sep-21 10:00N 48°28' W 122°45'3 6.5
2017-Sep-21 09:30N 48°32' W 122°45'3 7.0
2017-Sep-21 09:00N 48°35' W 122°46'4 7.3
2017-Sep-21 08:30N 48°39' W 122°44'4 7.4
2017-Sep-21 08:00N 48°42' W 122°45'4 7.1
2017-Sep-21 07:30N 48°45' W 122°48'4 7.1
2017-Sep-21 07:00N 48°47' W 122°53'4 7.7
2017-Sep-21 06:29N 48°49' W 122°58'4 7.9
2017-Sep-21 06:00N 48°52' W 123°02'4 7.7
2017-Sep-21 05:30N 48°54' W 123°07'4 8.1
2017-Sep-21 05:00N 48°57' W 123°12'4 8.2
2017-Sep-21 04:30N 48°59' W 123°16'4 7.6
2017-Sep-21 04:00N 49°03' W 123°19'3 6.8
2017-Sep-21 03:30N 49°06' W 123°19'3 6.3
2017-Sep-21 03:00N 49°08' W 123°14'2 5.1
2017-Sep-21 02:30N 49°07' W 123°11'3 5.2
2017-Sep-21 02:00N 49°07' W 123°07'3 5.0
2017-Sep-21 01:30N 49°08' W 123°04'1 2.7
2017-Sep-21 01:00N 49°09' W 123°02'0 0.0
2017-Sep-21 00:30N 49°09' W 123°02'0 0.0
2017-Sep-21 00:00N 49°09' W 123°02'0 0.0
2017-Sep-20 23:27N 49°09' W 123°02'0 0.0
2017-Sep-20 23:00N 49°09' W 123°02'0 0.0
2017-Sep-20 22:29N 49°09' W 123°02'0 0.0
2017-Sep-20 22:00N 49°09' W 123°02'0 0.0
2017-Sep-20 21:29N 49°09' W 123°02'0 0.0
2017-Sep-20 21:00N 49°09' W 123°02'0 0.0
2017-Sep-20 20:30N 49°09' W 123°02'0 0.0
2017-Sep-20 20:00N 49°09' W 123°02'0 0.0
2017-Sep-20 19:30N 49°09' W 123°02'0 0.0
2017-Sep-20 19:00N 49°09' W 123°02'0 0.0
2017-Sep-20 18:30N 49°09' W 123°02'0 0.0
2017-Sep-20 18:00N 49°09' W 123°02'0 0.0
2017-Sep-20 17:30N 49°09' W 123°02'0 0.0
2017-Sep-20 17:00N 49°09' W 123°02'0 0.0
2017-Sep-20 16:30N 49°09' W 123°02'0 0.0
2017-Sep-20 16:00N 49°09' W 123°02'0 0.0
2017-Sep-20 15:30N 49°09' W 123°02'0 0.0
2017-Sep-20 15:00N 49°09' W 123°02'0 0.0
2017-Sep-20 14:00N 49°09' W 123°02'0 0.0
2017-Sep-20 13:30N 49°09' W 123°02'0 0.0
2017-Sep-20 13:00N 49°09' W 123°02'0 0.0
2017-Sep-20 12:30N 49°09' W 123°02'0 0.0
2017-Sep-20 12:00N 49°09' W 123°02'0 0.0
2017-Sep-20 11:30N 49°09' W 123°02'0 0.0
2017-Sep-20 11:00N 49°09' W 123°02'0 0.1
2017-Sep-20 10:30N 49°09' W 123°02'1 2.6
2017-Sep-20 10:00N 49°08' W 123°03'4 7.3
2017-Sep-20 09:30N 49°06' W 123°08'4 7.1
2017-Sep-20 09:00N 49°08' W 123°13'4 7.0
2017-Sep-20 08:30N 49°06' W 123°18'3 5.4
2017-Sep-20 07:59N 49°03' W 123°18'5 9.4
2017-Sep-20 07:30N 49°00' W 123°13'5 9.2
2017-Sep-20 07:00N 48°57' W 123°08'5 9.4
2017-Sep-20 06:30N 48°54' W 123°03'4 8.9
2017-Sep-20 06:00N 48°51' W 122°58'10 9.2
2017-Sep-20 04:55N 48°45' W 122°46'3 8.4
2017-Sep-20 04:30N 48°42' W 122°43'4 7.6
2017-Sep-20 04:00N 48°38' W 122°44'4 7.0
2017-Sep-20 03:30N 48°35' W 122°45'4 7.9
2017-Sep-20 03:00N 48°31' W 122°44'30 7.8
2017-Sep-19 23:08N 48°01' W 122°37'2 7.0
2017-Sep-19 22:49N 47°59' W 122°35'2 6.7
2017-Sep-19 22:30N 47°58' W 122°33'4 8.0
2017-Sep-19 22:00N 47°55' W 122°29'4 8.7
2017-Sep-19 21:30N 47°51' W 122°27'5 9.7
2017-Sep-19 21:00N 47°46' W 122°26'5 9.5
2017-Sep-19 20:30N 47°41' W 122°27'4 8.4
2017-Sep-19 20:00N 47°37' W 122°24'4 7.7
2017-Sep-19 19:30N 47°34' W 122°21'0 0.6
2017-Sep-19 19:00N 47°34' W 122°21'0 0.6
2017-Sep-19 18:30N 47°34' W 122°21'0 0.0
2017-Sep-19 18:00N 47°34' W 122°21'0 0.0
2017-Sep-19 17:30N 47°34' W 122°21'0 0.0
2017-Sep-19 17:00N 47°34' W 122°21'0 0.0
2017-Sep-19 16:30N 47°34' W 122°21'0 0.0
2017-Sep-19 16:00N 47°34' W 122°21'0 0.0
2017-Sep-19 15:30N 47°34' W 122°21'0 0.0
2017-Sep-19 15:00N 47°34' W 122°21'0 0.0
2017-Sep-19 14:31N 47°34' W 122°21'0 0.0
2017-Sep-19 14:00N 47°34' W 122°21'0 0.0
2017-Sep-19 13:30N 47°34' W 122°21'0 0.0
2017-Sep-19 13:00N 47°34' W 122°21'0 0.0
2017-Sep-19 12:30N 47°34' W 122°21'0 0.0
2017-Sep-19 12:00N 47°34' W 122°21'0 0.0
2017-Sep-19 11:30N 47°34' W 122°21'0 0.0
2017-Sep-19 11:00N 47°34' W 122°21'0 0.0
2017-Sep-19 10:30N 47°34' W 122°21'0 0.0
2017-Sep-19 10:00N 47°34' W 122°21'0 0.0
2017-Sep-19 09:30N 47°34' W 122°21'0 0.0
2017-Sep-19 09:00N 47°34' W 122°21'0 0.0
2017-Sep-19 08:30N 47°34' W 122°21'0 0.0
2017-Sep-19 08:00N 47°34' W 122°21'0 0.7
2017-Sep-19 07:30N 47°34' W 122°21'510.7
2017-Sep-19 07:00N 47°39' W 122°26'510.5
2017-Sep-19 06:30N 47°44' W 122°27'510.4
2017-Sep-19 06:00N 47°49' W 122°28'510.3
2017-Sep-19 05:30N 47°54' W 122°30'5 9.3
2017-Sep-19 05:00N 47°57' W 122°35'18 8.1
2017-Sep-19 02:46N 48°10' W 122°53'3 9.1
2017-Sep-19 02:28N 48°10' W 122°58'4 9.5
2017-Sep-19 02:00N 48°12' W 123°04'510.3
2017-Sep-19 01:30N 48°11' W 123°12'5 9.7
2017-Sep-19 01:00N 48°09' W 123°18'510.5
2017-Sep-19 00:30N 48°08' W 123°26'1 1.4
2017-Sep-18 23:53N 48°08' W 123°27'1 1.7
2017-Sep-18 23:30N 48°08' W 123°26'2 3.6
2017-Sep-18 23:00N 48°08' W 123°24'4 7.0
2017-Sep-18 22:29N 48°09' W 123°19'3 7.0
2017-Sep-18 21:59N 48°11' W 123°14'4 6.7
2017-Sep-18 21:26N 48°11' W 123°08'26 6.9
2017-Sep-18 17:40N 47°59' W 122°35'2 9.0
2017-Sep-18 17:30N 47°58' W 122°33'5 9.4
2017-Sep-18 17:00N 47°54' W 122°28'5 9.9
2017-Sep-18 16:30N 47°50' W 122°27'510.0
2017-Sep-18 16:00N 47°45' W 122°26'4 8.4
2017-Sep-18 15:30N 47°40' W 122°25'0 0.9
2017-Sep-18 15:00N 47°40' W 122°24'2 4.4
2017-Sep-18 14:30N 47°38' W 122°25'5 9.3
2017-Sep-18 14:01N 47°34' W 122°21'0 0.3
2017-Sep-18 13:30N 47°34' W 122°21'0 0.0
2017-Sep-18 13:00N 47°34' W 122°21'0 0.0
2017-Sep-18 12:30N 47°34' W 122°21'0 0.0
2017-Sep-18 12:00N 47°34' W 122°21'0 0.0
2017-Sep-18 11:30N 47°34' W 122°21'0 0.0
2017-Sep-18 11:00N 47°34' W 122°21'0 0.0
2017-Sep-18 10:30N 47°34' W 122°21'0 0.0
2017-Sep-18 10:00N 47°34' W 122°21'0 0.0
2017-Sep-18 09:30N 47°34' W 122°21'0 0.0
2017-Sep-18 09:00N 47°34' W 122°21'0 0.0
2017-Sep-18 08:30N 47°34' W 122°21'0 0.0
2017-Sep-18 08:00N 47°34' W 122°21'0 0.0
2017-Sep-18 07:30N 47°34' W 122°21'0 0.0
2017-Sep-18 07:00N 47°34' W 122°21'0 0.0
2017-Sep-18 06:30N 47°34' W 122°21'0 0.0
2017-Sep-18 06:00N 47°34' W 122°21'0 0.0
2017-Sep-18 05:30N 47°34' W 122°21'0 0.0
2017-Sep-18 05:00N 47°34' W 122°21'  
2017-Sep-15 22:09N 47°34' W 122°21'0 3.5
2017-Sep-15 22:00N 47°34' W 122°21'0 0.5
2017-Sep-15 21:30N 47°34' W 122°21'2 3.4
2017-Sep-15 21:00N 47°35' W 122°22'2 3.3
2017-Sep-15 20:30N 47°37' W 122°24'3 6.8
2017-Sep-15 20:01N 47°39' W 122°27'3 6.1
2017-Sep-15 19:30N 47°42' W 122°28'3 6.8
2017-Sep-15 19:00N 47°45' W 122°27'3 6.8
2017-Sep-15 18:30N 47°49' W 122°28'3 6.9
2017-Sep-15 18:00N 47°52' W 122°29'3 6.8
2017-Sep-15 17:30N 47°55' W 122°31'4 7.8
2017-Sep-15 17:00N 47°58' W 122°35'29 7.4
2017-Sep-15 13:04N 48°26' W 122°45'210.5
2017-Sep-15 12:55N 48°28' W 122°45'410.9
2017-Sep-15 12:30N 48°32' W 122°45'5 9.9
2017-Sep-15 12:00N 48°37' W 122°45'5 9.1
2017-Sep-15 11:30N 48°42' W 122°44'4 8.7
2017-Sep-15 10:59N 48°45' W 122°48'5 8.3
2017-Sep-15 10:25N 48°48' W 122°54'3 8.2
2017-Sep-15 10:00N 48°50' W 122°58'4 8.1
2017-Sep-15 09:30N 48°52' W 123°04'4 8.3
2017-Sep-15 09:00N 48°55' W 123°08'4 8.0
2017-Sep-15 08:30N 48°57' W 123°13'4 7.4
2017-Sep-15 08:00N 48°60' W 123°17'4 7.2
2017-Sep-15 07:30N 49°03' W 123°20'3 6.2
2017-Sep-15 07:00N 49°06' W 123°18'3 5.6
2017-Sep-15 06:30N 49°08' W 123°15'3 5.9
2017-Sep-15 06:00N 49°07' W 123°10'3 6.4
2017-Sep-15 05:30N 49°07' W 123°05'3 5.5
2017-Sep-15 05:00N 49°09' W 123°02'0 0.6
2017-Sep-15 04:30N 49°09' W 123°02'0 0.1
2017-Sep-15 04:00N 49°09' W 123°02'0 0.0
2017-Sep-15 03:30N 49°09' W 123°02'0 0.0
2017-Sep-15 03:00N 49°09' W 123°02'0 0.0
2017-Sep-15 02:30N 49°09' W 123°02'0 0.0
2017-Sep-15 02:00N 49°09' W 123°02'0 0.0
2017-Sep-15 01:30N 49°09' W 123°02'0 0.0
2017-Sep-15 01:00N 49°09' W 123°02'0 0.0
2017-Sep-15 00:30N 49°09' W 123°02'0 0.0
2017-Sep-15 00:00N 49°09' W 123°02'0 0.0
2017-Sep-14 23:30N 49°09' W 123°02'0 0.0
2017-Sep-14 23:00N 49°09' W 123°02'0 0.0
2017-Sep-14 22:30N 49°09' W 123°02'0 0.0
2017-Sep-14 22:00N 49°09' W 123°02'0 0.0
2017-Sep-14 21:30N 49°09' W 123°02'0 0.0
2017-Sep-14 21:00N 49°09' W 123°02'0 0.0
2017-Sep-14 20:30N 49°09' W 123°02'0 0.0
2017-Sep-14 20:00N 49°09' W 123°02'0 0.0
2017-Sep-14 19:30N 49°09' W 123°02'0 0.0
2017-Sep-14 19:00N 49°09' W 123°02'0 0.0
2017-Sep-14 18:30N 49°09' W 123°02'0 0.0
2017-Sep-14 18:00N 49°09' W 123°02'0 0.0
2017-Sep-14 17:30N 49°09' W 123°02'0 0.0
2017-Sep-14 17:00N 49°09' W 123°02'0 0.0
2017-Sep-14 16:30N 49°09' W 123°02'0 0.0
2017-Sep-14 16:00N 49°09' W 123°02'0 0.0
2017-Sep-14 15:30N 49°09' W 123°02'0 0.0
2017-Sep-14 15:00N 49°09' W 123°02'0 0.0
2017-Sep-14 14:30N 49°09' W 123°02'0 0.0
2017-Sep-14 14:00N 49°09' W 123°02'0 0.0
2017-Sep-14 13:30N 49°09' W 123°02'0 0.0
2017-Sep-14 13:00N 49°09' W 123°02'0 0.0
2017-Sep-14 12:30N 49°09' W 123°02'0 0.0
2017-Sep-14 12:00N 49°09' W 123°02'0 0.0
2017-Sep-14 11:30N 49°09' W 123°02'0 0.1
2017-Sep-14 11:00N 49°09' W 123°02'2 4.7
2017-Sep-14 10:30N 49°07' W 123°05'3 5.7
2017-Sep-14 10:00N 49°06' W 123°09'3 6.1
2017-Sep-14 09:29N 49°08' W 123°13'3 7.0
2017-Sep-14 09:00N 49°06' W 123°18'2 4.3
2017-Sep-14 08:30N 49°04' W 123°19'4 7.6
2017-Sep-14 08:00N 49°01' W 123°15'4 7.9
2017-Sep-14 07:30N 48°59' W 123°11'4 7.7
2017-Sep-14 07:00N 48°56' W 123°07'4 7.3
2017-Sep-14 06:29N 48°54' W 123°02'4 7.5
2017-Sep-14 06:00N 48°51' W 122°58'11 7.5
2017-Sep-14 04:35N 48°45' W 122°45'2 8.4
2017-Sep-14 04:22N 48°43' W 122°44'3 8.1
2017-Sep-14 04:00N 48°40' W 122°42'4 8.2
2017-Sep-14 03:30N 48°37' W 122°45'4 8.5
2017-Sep-14 03:00N 48°32' W 122°45'4 8.8
2017-Sep-14 02:30N 48°28' W 122°44'28 8.3
2017-Sep-13 23:06N 48°00' W 122°36'210.4
2017-Sep-13 22:58N 47°59' W 122°35'5 9.9
2017-Sep-13 22:30N 47°56' W 122°30'5 9.2
2017-Sep-13 22:00N 47°52' W 122°28'5 9.1
2017-Sep-13 21:30N 47°47' W 122°26'4 8.9
2017-Sep-13 21:00N 47°43' W 122°26'4 8.9
2017-Sep-13 20:30N 47°38' W 122°26'4 8.3
2017-Sep-13 20:00N 47°35' W 122°22'0 0.3
2017-Sep-13 19:31N 47°35' W 122°22'0 0.5
2017-Sep-13 19:00N 47°35' W 122°21'0 0.0
2017-Sep-13 18:30N 47°35' W 122°21'0 0.0
2017-Sep-13 18:00N 47°35' W 122°21'1 0.1
2017-Sep-12 20:22N 47°34' W 122°21'1 2.5
2017-Sep-12 20:01N 47°33' W 122°21'2 3.6
2017-Sep-12 19:30N 47°35' W 122°22'3 5.5
2017-Sep-12 19:01N 47°37' W 122°24'4 7.0
2017-Sep-12 18:31N 47°39' W 122°28'4 7.0
2017-Sep-12 18:01N 47°43' W 122°28'3 6.6
2017-Sep-12 17:31N 47°46' W 122°27'4 7.3
2017-Sep-12 17:01N 47°50' W 122°28'4 7.2
2017-Sep-12 16:31N 47°53' W 122°29'4 8.1
2017-Sep-12 16:00N 47°57' W 122°33'5 8.8
2017-Sep-12 15:28N 48°00' W 122°38'20 8.5
2017-Sep-12 13:09N 48°19' W 122°47'2 8.8
2017-Sep-12 12:52N 48°21' W 122°46'3 8.5
2017-Sep-12 12:29N 48°24' W 122°45'4 8.7
2017-Sep-12 12:00N 48°29' W 122°45'4 9.0
2017-Sep-12 11:31N 48°33' W 122°45'5 9.2
2017-Sep-12 11:00N 48°38' W 122°44'4 8.6
2017-Sep-12 10:31N 48°42' W 122°45'9 8.4
2017-Sep-12 09:24N 48°48' W 122°55'4 9.0
2017-Sep-12 09:00N 48°50' W 122°60'4 8.7
2017-Sep-12 08:30N 48°53' W 123°05'4 8.7
2017-Sep-12 08:00N 48°56' W 123°10'4 9.0
2017-Sep-12 07:30N 48°59' W 123°15'4 8.5
2017-Sep-12 07:00N 49°01' W 123°20'4 8.2
2017-Sep-12 06:30N 49°04' W 123°24'5 7.8
2017-Sep-12 05:54N 49°08' W 123°28'5 7.5
2017-Sep-12 05:17N 49°12' W 123°32'6 7.4
2017-Sep-12 04:27N 49°18' W 123°37'9 7.5
2017-Sep-12 03:16N 49°25' W 123°44'2 0.7
2017-Sep-11 23:41N 49°27' W 123°46'1 3.2
2017-Sep-11 23:25N 49°26' W 123°46'5 3.8
2017-Sep-11 22:11N 49°23' W 123°41'1 5.3
2017-Sep-11 21:59N 49°22' W 123°40'3 5.5
2017-Sep-11 21:30N 49°20' W 123°38'3 5.4
2017-Sep-11 21:00N 49°18' W 123°35'  
Track history (hours):
 
Tides and Currents Weather Stations Pressure Air Temp Water Temp Dewpoint Dewpoint Depression Visibility Wind Speed Wind Dir Waves Ship Positions

Triumph

Owner: WESTERN TOWBOAT CO, SEATTLE, WA. More information available from US FCC via Universal Licensing System and Coast Guard Vessel Documentation Center.

Last reported at 2017-Sep-21 20:52 UTC. Time now 2017-Sep-22 20:55 UTC.
Position N 47°34' W 122°21'.

Length 24 m; draft 3 m.

Type: Tow > 200 m length. MMSI: 367103880.

Date/timePositionNaut miles runAvg speedWind from/ knotsBaromVisibWave heightAir tempDewpointWater temp
2017-Sep-21 20:52N 47°34' W 122°21'1 2.4
2017-Sep-21 20:30N 47°33' W 122°21'2 3.5
2017-Sep-21 20:00N 47°35' W 122°22'2 4.7
2017-Sep-21 19:30N 47°37' W 122°24'3 5.8
2017-Sep-21 19:00N 47°39' W 122°27'2 4.8
2017-Sep-21 18:30N 47°41' W 122°28'3 5.3
2017-Sep-21 18:00N 47°44' W 122°27'3 5.1
2017-Sep-21 17:30N 47°46' W 122°27'3 5.9
2017-Sep-21 17:00N 47°49' W 122°28'3 5.8
2017-Sep-21 16:30N 47°52' W 122°29'3 5.3
2017-Sep-21 16:00N 47°54' W 122°30'3 4.9
2017-Sep-21 15:30N 47°56' W 122°33'3 5.4
2017-Sep-21 15:00N 47°58' W 122°36'3 6.0
2017-Sep-21 14:28N 48°01' W 122°38'21 6.3
2017-Sep-21 11:09N 48°21' W 122°46'1 6.7
2017-Sep-21 11:00N 48°22' W 122°46'3 6.6
2017-Sep-21 10:29N 48°25' W 122°45'3 6.7
2017-Sep-21 10:00N 48°28' W 122°45'3 6.5
2017-Sep-21 09:30N 48°32' W 122°45'3 7.0
2017-Sep-21 09:00N 48°35' W 122°46'4 7.3
2017-Sep-21 08:30N 48°39' W 122°44'4 7.4
2017-Sep-21 08:00N 48°42' W 122°45'4 7.1
2017-Sep-21 07:30N 48°45' W 122°48'4 7.1
2017-Sep-21 07:00N 48°47' W 122°53'4 7.7
2017-Sep-21 06:29N 48°49' W 122°58'4 7.9
2017-Sep-21 06:00N 48°52' W 123°02'4 7.7
2017-Sep-21 05:30N 48°54' W 123°07'4 8.1
2017-Sep-21 05:00N 48°57' W 123°12'4 8.2
2017-Sep-21 04:30N 48°59' W 123°16'4 7.6
2017-Sep-21 04:00N 49°03' W 123°19'3 6.8
2017-Sep-21 03:30N 49°06' W 123°19'3 6.3
2017-Sep-21 03:00N 49°08' W 123°14'2 5.1
2017-Sep-21 02:30N 49°07' W 123°11'3 5.2
2017-Sep-21 02:00N 49°07' W 123°07'3 5.0
2017-Sep-21 01:30N 49°08' W 123°04'1 2.7
2017-Sep-21 01:00N 49°09' W 123°02'0 0.0
2017-Sep-21 00:30N 49°09' W 123°02'0 0.0
2017-Sep-21 00:00N 49°09' W 123°02'0 0.0
2017-Sep-20 23:27N 49°09' W 123°02'0 0.0
2017-Sep-20 23:00N 49°09' W 123°02'0 0.0
2017-Sep-20 22:29N 49°09' W 123°02'0 0.0
2017-Sep-20 22:00N 49°09' W 123°02'0 0.0
2017-Sep-20 21:29N 49°09' W 123°02'0 0.0
2017-Sep-20 21:00N 49°09' W 123°02'0 0.0
2017-Sep-20 20:30N 49°09' W 123°02'0 0.0
2017-Sep-20 20:00N 49°09' W 123°02'0 0.0
2017-Sep-20 19:30N 49°09' W 123°02'0 0.0
2017-Sep-20 19:00N 49°09' W 123°02'0 0.0
2017-Sep-20 18:30N 49°09' W 123°02'0 0.0
2017-Sep-20 18:00N 49°09' W 123°02'0 0.0
2017-Sep-20 17:30N 49°09' W 123°02'0 0.0
2017-Sep-20 17:00N 49°09' W 123°02'0 0.0
2017-Sep-20 16:30N 49°09' W 123°02'0 0.0
2017-Sep-20 16:00N 49°09' W 123°02'0 0.0
2017-Sep-20 15:30N 49°09' W 123°02'0 0.0
2017-Sep-20 15:00N 49°09' W 123°02'0 0.0
2017-Sep-20 14:00N 49°09' W 123°02'0 0.0
2017-Sep-20 13:30N 49°09' W 123°02'0 0.0
2017-Sep-20 13:00N 49°09' W 123°02'0 0.0
2017-Sep-20 12:30N 49°09' W 123°02'0 0.0
2017-Sep-20 12:00N 49°09' W 123°02'0 0.0
2017-Sep-20 11:30N 49°09' W 123°02'0 0.0
2017-Sep-20 11:00N 49°09' W 123°02'0 0.1
2017-Sep-20 10:30N 49°09' W 123°02'1 2.6
2017-Sep-20 10:00N 49°08' W 123°03'4 7.3
2017-Sep-20 09:30N 49°06' W 123°08'4 7.1
2017-Sep-20 09:00N 49°08' W 123°13'4 7.0
2017-Sep-20 08:30N 49°06' W 123°18'3 5.4
2017-Sep-20 07:59N 49°03' W 123°18'5 9.4
2017-Sep-20 07:30N 49°00' W 123°13'5 9.2
2017-Sep-20 07:00N 48°57' W 123°08'5 9.4
2017-Sep-20 06:30N 48°54' W 123°03'4 8.9
2017-Sep-20 06:00N 48°51' W 122°58'10 9.2
2017-Sep-20 04:55N 48°45' W 122°46'3 8.4
2017-Sep-20 04:30N 48°42' W 122°43'4 7.6
2017-Sep-20 04:00N 48°38' W 122°44'4 7.0
2017-Sep-20 03:30N 48°35' W 122°45'4 7.9
2017-Sep-20 03:00N 48°31' W 122°44'30 7.8
2017-Sep-19 23:08N 48°01' W 122°37'2 7.0
2017-Sep-19 22:49N 47°59' W 122°35'2 6.7
2017-Sep-19 22:30N 47°58' W 122°33'4 8.0
2017-Sep-19 22:00N 47°55' W 122°29'4 8.7
2017-Sep-19 21:30N 47°51' W 122°27'5 9.7
2017-Sep-19 21:00N 47°46' W 122°26'5 9.5
2017-Sep-19 20:30N 47°41' W 122°27'4 8.4
2017-Sep-19 20:00N 47°37' W 122°24'4 7.7
2017-Sep-19 19:30N 47°34' W 122°21'0 0.6
2017-Sep-19 19:00N 47°34' W 122°21'0 0.6
2017-Sep-19 18:30N 47°34' W 122°21'0 0.0
2017-Sep-19 18:00N 47°34' W 122°21'0 0.0
2017-Sep-19 17:30N 47°34' W 122°21'0 0.0
2017-Sep-19 17:00N 47°34' W 122°21'0 0.0
2017-Sep-19 16:30N 47°34' W 122°21'0 0.0
2017-Sep-19 16:00N 47°34' W 122°21'0 0.0
2017-Sep-19 15:30N 47°34' W 122°21'0 0.0
2017-Sep-19 15:00N 47°34' W 122°21'0 0.0
2017-Sep-19 14:31N 47°34' W 122°21'0 0.0
2017-Sep-19 14:00N 47°34' W 122°21'0 0.0
2017-Sep-19 13:30N 47°34' W 122°21'0 0.0
2017-Sep-19 13:00N 47°34' W 122°21'0 0.0
2017-Sep-19 12:30N 47°34' W 122°21'0 0.0
2017-Sep-19 12:00N 47°34' W 122°21'0 0.0
2017-Sep-19 11:30N 47°34' W 122°21'0 0.0
2017-Sep-19 11:00N 47°34' W 122°21'0 0.0
2017-Sep-19 10:30N 47°34' W 122°21'0 0.0
2017-Sep-19 10:00N 47°34' W 122°21'0 0.0
2017-Sep-19 09:30N 47°34' W 122°21'0 0.0
2017-Sep-19 09:00N 47°34' W 122°21'0 0.0
2017-Sep-19 08:30N 47°34' W 122°21'0 0.0
2017-Sep-19 08:00N 47°34' W 122°21'0 0.7
2017-Sep-19 07:30N 47°34' W 122°21'510.7
2017-Sep-19 07:00N 47°39' W 122°26'510.5
2017-Sep-19 06:30N 47°44' W 122°27'510.4
2017-Sep-19 06:00N 47°49' W 122°28'510.3
2017-Sep-19 05:30N 47°54' W 122°30'5 9.3
2017-Sep-19 05:00N 47°57' W 122°35'18 8.1
2017-Sep-19 02:46N 48°10' W 122°53'3 9.1
2017-Sep-19 02:28N 48°10' W 122°58'4 9.5
2017-Sep-19 02:00N 48°12' W 123°04'510.3
2017-Sep-19 01:30N 48°11' W 123°12'5 9.7
2017-Sep-19 01:00N 48°09' W 123°18'510.5
2017-Sep-19 00:30N 48°08' W 123°26'1 1.4
2017-Sep-18 23:53N 48°08' W 123°27'1 1.7
2017-Sep-18 23:30N 48°08' W 123°26'2 3.6
2017-Sep-18 23:00N 48°08' W 123°24'4 7.0
2017-Sep-18 22:29N 48°09' W 123°19'3 7.0
2017-Sep-18 21:59N 48°11' W 123°14'4 6.7
2017-Sep-18 21:26N 48°11' W 123°08'26 6.9
2017-Sep-18 17:40N 47°59' W 122°35'2 9.0
2017-Sep-18 17:30N 47°58' W 122°33'5 9.4
2017-Sep-18 17:00N 47°54' W 122°28'5 9.9
2017-Sep-18 16:30N 47°50' W 122°27'510.0
2017-Sep-18 16:00N 47°45' W 122°26'4 8.4
2017-Sep-18 15:30N 47°40' W 122°25'0 0.9
2017-Sep-18 15:00N 47°40' W 122°24'2 4.4
2017-Sep-18 14:30N 47°38' W 122°25'5 9.3
2017-Sep-18 14:01N 47°34' W 122°21'0 0.3
2017-Sep-18 13:30N 47°34' W 122°21'0 0.0
2017-Sep-18 13:00N 47°34' W 122°21'0 0.0
2017-Sep-18 12:30N 47°34' W 122°21'0 0.0
2017-Sep-18 12:00N 47°34' W 122°21'0 0.0
2017-Sep-18 11:30N 47°34' W 122°21'0 0.0
2017-Sep-18 11:00N 47°34' W 122°21'0 0.0
2017-Sep-18 10:30N 47°34' W 122°21'0 0.0
2017-Sep-18 10:00N 47°34' W 122°21'0 0.0
2017-Sep-18 09:30N 47°34' W 122°21'0 0.0
2017-Sep-18 09:00N 47°34' W 122°21'0 0.0
2017-Sep-18 08:30N 47°34' W 122°21'0 0.0
2017-Sep-18 08:00N 47°34' W 122°21'0 0.0
2017-Sep-18 07:30N 47°34' W 122°21'0 0.0
2017-Sep-18 07:00N 47°34' W 122°21'0 0.0
2017-Sep-18 06:30N 47°34' W 122°21'0 0.0
2017-Sep-18 06:00N 47°34' W 122°21'0 0.0
2017-Sep-18 05:30N 47°34' W 122°21'0 0.0
2017-Sep-18 05:00N 47°34' W 122°21'  
2017-Sep-15 22:09N 47°34' W 122°21'0 3.5
2017-Sep-15 22:00N 47°34' W 122°21'0 0.5
2017-Sep-15 21:30N 47°34' W 122°21'2 3.4
2017-Sep-15 21:00N 47°35' W 122°22'2 3.3
2017-Sep-15 20:30N 47°37' W 122°24'3 6.8
2017-Sep-15 20:01N 47°39' W 122°27'3 6.1
2017-Sep-15 19:30N 47°42' W 122°28'3 6.8
2017-Sep-15 19:00N 47°45' W 122°27'3 6.8
2017-Sep-15 18:30N 47°49' W 122°28'3 6.9
2017-Sep-15 18:00N 47°52' W 122°29'3 6.8
2017-Sep-15 17:30N 47°55' W 122°31'4 7.8
2017-Sep-15 17:00N 47°58' W 122°35'29 7.4
2017-Sep-15 13:04N 48°26' W 122°45'210.5
2017-Sep-15 12:55N 48°28' W 122°45'410.9
2017-Sep-15 12:30N 48°32' W 122°45'5 9.9
2017-Sep-15 12:00N 48°37' W 122°45'5 9.1
2017-Sep-15 11:30N 48°42' W 122°44'4 8.7
2017-Sep-15 10:59N 48°45' W 122°48'5 8.3
2017-Sep-15 10:25N 48°48' W 122°54'3 8.2
2017-Sep-15 10:00N 48°50' W 122°58'4 8.1
2017-Sep-15 09:30N 48°52' W 123°04'4 8.3
2017-Sep-15 09:00N 48°55' W 123°08'4 8.0
2017-Sep-15 08:30N 48°57' W 123°13'4 7.4
2017-Sep-15 08:00N 48°60' W 123°17'4 7.2
2017-Sep-15 07:30N 49°03' W 123°20'3 6.2
2017-Sep-15 07:00N 49°06' W 123°18'3 5.6
2017-Sep-15 06:30N 49°08' W 123°15'3 5.9
2017-Sep-15 06:00N 49°07' W 123°10'3 6.4
2017-Sep-15 05:30N 49°07' W 123°05'3 5.5
2017-Sep-15 05:00N 49°09' W 123°02'0 0.6
2017-Sep-15 04:30N 49°09' W 123°02'0 0.1
2017-Sep-15 04:00N 49°09' W 123°02'0 0.0
2017-Sep-15 03:30N 49°09' W 123°02'0 0.0
2017-Sep-15 03:00N 49°09' W 123°02'0 0.0
2017-Sep-15 02:30N 49°09' W 123°02'0 0.0
2017-Sep-15 02:00N 49°09' W 123°02'0 0.0
2017-Sep-15 01:30N 49°09' W 123°02'0 0.0
2017-Sep-15 01:00N 49°09' W 123°02'0 0.0
2017-Sep-15 00:30N 49°09' W 123°02'0 0.0
2017-Sep-15 00:00N 49°09' W 123°02'0 0.0
2017-Sep-14 23:30N 49°09' W 123°02'0 0.0
2017-Sep-14 23:00N 49°09' W 123°02'0 0.0
2017-Sep-14 22:30N 49°09' W 123°02'0 0.0
2017-Sep-14 22:00N 49°09' W 123°02'0 0.0
2017-Sep-14 21:30N 49°09' W 123°02'0 0.0
2017-Sep-14 21:00N 49°09' W 123°02'0 0.0
2017-Sep-14 20:30N 49°09' W 123°02'0 0.0
2017-Sep-14 20:00N 49°09' W 123°02'0 0.0
2017-Sep-14 19:30N 49°09' W 123°02'0 0.0
2017-Sep-14 19:00N 49°09' W 123°02'0 0.0
2017-Sep-14 18:30N 49°09' W 123°02'0 0.0
2017-Sep-14 18:00N 49°09' W 123°02'0 0.0
2017-Sep-14 17:30N 49°09' W 123°02'0 0.0
2017-Sep-14 17:00N 49°09' W 123°02'0 0.0
2017-Sep-14 16:30N 49°09' W 123°02'0 0.0
2017-Sep-14 16:00N 49°09' W 123°02'0 0.0
2017-Sep-14 15:30N 49°09' W 123°02'0 0.0
2017-Sep-14 15:00N 49°09' W 123°02'0 0.0
2017-Sep-14 14:30N 49°09' W 123°02'0 0.0
2017-Sep-14 14:00N 49°09' W 123°02'0 0.0
2017-Sep-14 13:30N 49°09' W 123°02'0 0.0
2017-Sep-14 13:00N 49°09' W 123°02'0 0.0
2017-Sep-14 12:30N 49°09' W 123°02'0 0.0
2017-Sep-14 12:00N 49°09' W 123°02'0 0.0
2017-Sep-14 11:30N 49°09' W 123°02'0 0.1
2017-Sep-14 11:00N 49°09' W 123°02'2 4.7
2017-Sep-14 10:30N 49°07' W 123°05'3 5.7
2017-Sep-14 10:00N 49°06' W 123°09'3 6.1
2017-Sep-14 09:29N 49°08' W 123°13'3 7.0
2017-Sep-14 09:00N 49°06' W 123°18'2 4.3
2017-Sep-14 08:30N 49°04' W 123°19'4 7.6
2017-Sep-14 08:00N 49°01' W 123°15'4 7.9
2017-Sep-14 07:30N 48°59' W 123°11'4 7.7
2017-Sep-14 07:00N 48°56' W 123°07'4 7.3
2017-Sep-14 06:29N 48°54' W 123°02'4 7.5
2017-Sep-14 06:00N 48°51' W 122°58'11 7.5
2017-Sep-14 04:35N 48°45' W 122°45'2 8.4
2017-Sep-14 04:22N 48°43' W 122°44'3 8.1
2017-Sep-14 04:00N 48°40' W 122°42'4 8.2
2017-Sep-14 03:30N 48°37' W 122°45'4 8.5
2017-Sep-14 03:00N 48°32' W 122°45'4 8.8
2017-Sep-14 02:30N 48°28' W 122°44'28 8.3
2017-Sep-13 23:06N 48°00' W 122°36'210.4
2017-Sep-13 22:58N 47°59' W 122°35'5 9.9
2017-Sep-13 22:30N 47°56' W 122°30'5 9.2
2017-Sep-13 22:00N 47°52' W 122°28'5 9.1
2017-Sep-13 21:30N 47°47' W 122°26'4 8.9
2017-Sep-13 21:00N 47°43' W 122°26'4 8.9
2017-Sep-13 20:30N 47°38' W 122°26'4 8.3
2017-Sep-13 20:00N 47°35' W 122°22'0 0.3
2017-Sep-13 19:31N 47°35' W 122°22'0 0.5
2017-Sep-13 19:00N 47°35' W 122°21'0 0.0
2017-Sep-13 18:30N 47°35' W 122°21'0 0.0
2017-Sep-13 18:00N 47°35' W 122°21'1 0.1
2017-Sep-12 20:22N 47°34' W 122°21'1 2.5
2017-Sep-12 20:01N 47°33' W 122°21'2 3.6
2017-Sep-12 19:30N 47°35' W 122°22'3 5.5
2017-Sep-12 19:01N 47°37' W 122°24'4 7.0
2017-Sep-12 18:31N 47°39' W 122°28'4 7.0
2017-Sep-12 18:01N 47°43' W 122°28'3 6.6
2017-Sep-12 17:31N 47°46' W 122°27'4 7.3
2017-Sep-12 17:01N 47°50' W 122°28'4 7.2
2017-Sep-12 16:31N 47°53' W 122°29'4 8.1
2017-Sep-12 16:00N 47°57' W 122°33'5 8.8
2017-Sep-12 15:28N 48°00' W 122°38'20 8.5
2017-Sep-12 13:09N 48°19' W 122°47'2 8.8
2017-Sep-12 12:52N 48°21' W 122°46'3 8.5
2017-Sep-12 12:29N 48°24' W 122°45'4 8.7
2017-Sep-12 12:00N 48°29' W 122°45'4 9.0
2017-Sep-12 11:31N 48°33' W 122°45'5 9.2
2017-Sep-12 11:00N 48°38' W 122°44'4 8.6
2017-Sep-12 10:31N 48°42' W 122°45'9 8.4
2017-Sep-12 09:24N 48°48' W 122°55'4 9.0
2017-Sep-12 09:00N 48°50' W 122°60'4 8.7
2017-Sep-12 08:30N 48°53' W 123°05'4 8.7
2017-Sep-12 08:00N 48°56' W 123°10'4 9.0
2017-Sep-12 07:30N 48°59' W 123°15'4 8.5
2017-Sep-12 07:00N 49°01' W 123°20'4 8.2
2017-Sep-12 06:30N 49°04' W 123°24'5 7.8
2017-Sep-12 05:54N 49°08' W 123°28'5 7.5
2017-Sep-12 05:17N 49°12' W 123°32'6 7.4
2017-Sep-12 04:27N 49°18' W 123°37'9 7.5
2017-Sep-12 03:16N 49°25' W 123°44'2 0.7
2017-Sep-11 23:41N 49°27' W 123°46'1 3.2
2017-Sep-11 23:25N 49°26' W 123°46'5 3.8
2017-Sep-11 22:11N 49°23' W 123°41'1 5.3
2017-Sep-11 21:59N 49°22' W 123°40'3 5.5
2017-Sep-11 21:30N 49°20' W 123°38'3 5.4
2017-Sep-11 21:00N 49°18' W 123°35'  

Dump ship's entire track history